Time;durP1;ratioP1;P1;durP2;ratioP2;P2;SDS_P1;SDS_P2;PMS_P1;PMS_P2;Temp;Humidity;BMP_temperature;BMP_pressure;BME280_temperature;BME280_humidity;BME280_pressure;Samples;Min_cycle;Max_cycle;Signal;HPM_P1;HPM_P2
2023/12/10 00:00:58;;;;;;;42.92;31.85;;;11.90;83.00;;;;;;5015032;28;20045;-80
2023/12/10 00:03:24;;;;;;;40.72;30.92;;;11.90;83.60;;;;;;5014848;28;20061;-81
2023/12/10 00:05:50;;;;;;;40.83;32.13;;;11.80;84.00;;;;;;5014695;28;20038;-81
2023/12/10 00:08:16;;;;;;;39.90;28.88;;;11.90;84.60;;;;;;5014500;28;20037;-80
2023/12/10 00:10:42;;;;;;;39.40;29.65;;;11.90;84.80;;;;;;5014228;28;20046;-80
2023/12/10 00:13:09;;;;;;;40.88;31.10;;;11.90;85.20;;;;;;5014316;28;20046;-81
2023/12/10 00:15:37;;;;;;;39.15;30.13;;;11.90;85.60;;;;;;5014157;28;20133;-81
2023/12/10 00:18:03;;;;;;;41.10;29.90;;;11.90;85.60;;;;;;5014308;28;20030;-81
2023/12/10 00:20:29;;;;;;;34.25;28.08;;;11.90;85.80;;;;;;5013967;28;20041;-80
2023/12/10 00:22:55;;;;;;;35.25;27.95;;;11.90;86.30;;;;;;5014184;28;20395;-80
2023/12/10 00:25:20;;;;;;;34.13;28.42;;;11.90;86.40;;;;;;5014195;28;20032;-80
2023/12/10 00:27:46;;;;;;;32.22;26.80;;;11.90;87.00;;;;;;5014381;28;20475;-80
2023/12/10 00:30:13;;;;;;;35.83;27.42;;;11.90;87.10;;;;;;4996379;28;20467;-81
2023/12/10 00:32:39;;;;;;;34.10;27.13;;;11.90;87.20;;;;;;5013864;28;20031;-80
2023/12/10 00:35:05;;;;;;;33.75;27.80;;;11.90;87.60;;;;;;5014630;28;20466;-80
2023/12/10 00:37:32;;;;;;;28.77;23.70;;;11.90;87.90;;;;;;5014042;28;20048;-82
2023/12/10 00:39:59;;;;;;;29.25;22.95;;;11.90;87.70;;;;;;5014215;28;20038;-79
2023/12/10 00:42:25;;;;;;;31.95;24.48;;;12.00;88.30;;;;;;5013766;28;20042;-79
2023/12/10 00:44:50;;;;;;;26.40;21.35;;;12.00;88.30;;;;;;5013861;28;20057;-79
2023/12/10 00:47:16;;;;;;;31.40;23.35;;;12.00;88.60;;;;;;5013927;28;20415;-79
2023/12/10 00:49:43;;;;;;;28.40;21.98;;;12.00;88.70;;;;;;5014053;28;20116;-80
2023/12/10 00:52:08;;;;;;;23.95;18.58;;;12.00;89.10;;;;;;5014000;28;20040;-79
2023/12/10 00:54:34;;;;;;;22.98;17.27;;;12.10;89.40;;;;;;5013852;28;20038;-80
2023/12/10 00:57:00;;;;;;;25.75;17.85;;;12.10;89.60;;;;;;5013801;28;20044;-78
2023/12/10 00:59:26;;;;;;;20.98;16.25;;;12.10;89.50;;;;;;5013875;28;20030;-79
2023/12/10 01:01:52;;;;;;;19.10;15.07;;;12.10;90.00;;;;;;5013491;28;20471;-80
2023/12/10 01:04:18;;;;;;;18.55;14.25;;;12.20;90.00;;;;;;5013520;28;20033;-80
2023/12/10 01:06:44;;;;;;;22.05;14.93;;;12.20;90.00;;;;;;5013337;28;20034;-79
2023/12/10 01:09:09;;;;;;;17.13;12.52;;;12.20;90.30;;;;;;5013276;28;20501;-80
2023/12/10 01:11:35;;;;;;;16.88;11.43;;;12.20;90.40;;;;;;5013461;28;20533;-78
2023/12/10 01:14:03;;;;;;;15.98;10.20;;;12.20;90.50;;;;;;5013927;28;20030;-78
2023/12/10 01:16:29;;;;;;;13.95;8.50;;;12.20;90.60;;;;;;5013378;28;20056;-81
2023/12/10 01:18:55;;;;;;;12.43;8.70;;;12.30;90.70;;;;;;5013561;28;20026;-80
2023/12/10 01:21:21;;;;;;;11.77;8.32;;;12.30;90.60;;;;;;5013201;28;20034;-80
2023/12/10 01:23:49;;;;;;;11.10;6.95;;;12.30;90.90;;;;;;5012612;28;20105;-80
2023/12/10 01:26:15;;;;;;;11.68;7.03;;;12.30;90.70;;;;;;5013194;28;20038;-81
2023/12/10 01:28:40;;;;;;;9.95;6.97;;;12.40;90.80;;;;;;5013108;28;20036;-79
2023/12/10 01:31:06;;;;;;;12.27;6.47;;;12.40;90.80;;;;;;5013177;28;20037;-80
2023/12/10 01:33:32;;;;;;;10.20;5.78;;;12.40;90.90;;;;;;5013207;28;20030;-79
2023/12/10 01:35:57;;;;;;;10.27;5.30;;;12.40;90.90;;;;;;5013609;28;20169;-79
2023/12/10 01:38:23;;;;;;;9.48;5.32;;;12.40;91.00;;;;;;5013331;28;20086;-79
2023/12/10 01:40:49;;;;;;;10.55;5.55;;;12.40;91.10;;;;;;5012822;28;20069;-79
2023/12/10 01:43:18;;;;;;;11.13;5.75;;;12.50;91.30;;;;;;5013231;28;20039;-80
2023/12/10 01:45:50;;;;;;;9.25;5.20;;;12.50;91.40;;;;;;5013349;28;20038;-80
2023/12/10 01:48:21;;;;;;;8.90;5.13;;;12.50;91.30;;;;;;5013278;28;20045;-80
2023/12/10 01:50:48;;;;;;;10.95;4.15;;;12.50;91.40;;;;;;5012942;28;20373;-80
2023/12/10 01:53:15;;;;;;;8.68;4.38;;;12.50;91.50;;;;;;5012824;28;20364;-80
2023/12/10 01:55:41;;;;;;;9.57;4.82;;;12.50;91.40;;;;;;5012886;28;20038;-80
2023/12/10 01:58:09;;;;;;;11.45;4.88;;;12.50;91.50;;;;;;5013207;28;20045;-78
2023/12/10 02:00:35;;;;;;;9.90;5.07;;;12.60;91.40;;;;;;5013115;28;20057;-80
2023/12/10 02:03:02;;;;;;;9.52;4.90;;;12.60;91.40;;;;;;5012886;28;20038;-79
2023/12/10 02:05:28;;;;;;;10.45;4.28;;;12.60;91.30;;;;;;5012893;28;20080;-80
2023/12/10 02:07:54;;;;;;;8.23;3.97;;;12.60;91.30;;;;;;5012796;28;20042;-81
2023/12/10 02:10:20;;;;;;;7.47;3.80;;;12.70;91.40;;;;;;5012728;28;20034;-80
2023/12/10 02:12:47;;;;;;;8.27;4.30;;;12.60;91.30;;;;;;5011958;28;20523;-80
2023/12/10 02:15:17;;;;;;;11.52;4.07;;;12.70;91.50;;;;;;5012112;28;20113;-79
2023/12/10 02:17:44;;;;;;;8.93;4.00;;;12.70;91.40;;;;;;5011805;28;20117;-80
2023/12/10 02:20:13;;;;;;;7.97;3.72;;;12.70;91.30;;;;;;5011841;28;20368;-80
2023/12/10 02:23:02;;;;;;;8.60;4.28;;;12.70;91.50;;;;;;5011531;28;20507;-78
2023/12/10 02:25:38;;;;;;;10.30;3.53;;;12.70;91.50;;;;;;5011790;28;20037;-79
2023/12/10 02:28:08;;;;;;;12.18;3.75;;;12.70;91.30;;;;;;5022528;28;20037;-79
2023/12/10 02:30:35;;;;;;;11.30;3.90;;;12.80;91.40;;;;;;5027787;28;20034;-80
2023/12/10 02:33:01;;;;;;;8.40;3.40;;;12.80;91.20;;;;;;5029016;28;20105;-78
2023/12/10 02:35:27;;;;;;;8.98;3.50;;;12.80;91.30;;;;;;5037139;28;20411;-79
2023/12/10 02:37:53;;;;;;;8.80;3.45;;;12.80;91.30;;;;;;5024953;28;20144;-80
2023/12/10 02:40:19;;;;;;;8.00;3.58;;;12.80;91.40;;;;;;5014687;28;20038;-79
2023/12/10 02:42:46;;;;;;;10.90;4.18;;;12.80;91.30;;;;;;5014859;28;20434;-80
2023/12/10 02:45:12;;;;;;;9.68;3.85;;;12.90;91.40;;;;;;5014740;28;20022;-79
2023/12/10 02:47:38;;;;;;;7.93;3.75;;;12.90;91.50;;;;;;5014305;28;20045;-79
2023/12/10 02:50:05;;;;;;;9.88;4.72;;;12.80;91.30;;;;;;5014653;28;20030;-79
2023/12/10 02:52:32;;;;;;;10.18;3.67;;;12.90;91.50;;;;;;5014776;28;20109;-78
2023/12/10 02:54:58;;;;;;;10.23;3.40;;;12.90;91.50;;;;;;5014736;28;20034;-79
2023/12/10 02:57:23;;;;;;;9.88;3.75;;;12.90;91.30;;;;;;5014686;28;20058;-79
2023/12/10 02:59:49;;;;;;;10.00;3.40;;;13.00;91.50;;;;;;5014263;28;20472;-79
2023/12/10 03:02:15;;;;;;;8.57;3.45;;;13.00;91.50;;;;;;5014421;28;20030;-79
2023/12/10 03:04:40;;;;;;;10.15;3.47;;;13.00;91.50;;;;;;5014258;28;20030;-80
2023/12/10 03:07:06;;;;;;;8.15;3.50;;;13.00;91.50;;;;;;5014220;28;20030;-80
2023/12/10 03:09:32;;;;;;;11.43;3.83;;;13.00;91.60;;;;;;5014351;28;20129;-79
2023/12/10 03:11:58;;;;;;;9.18;3.25;;;13.00;91.60;;;;;;4963525;28;1475702;-80
2023/12/10 03:14:23;;;;;;;10.68;3.17;;;13.00;91.70;;;;;;5015393;28;20038;-80
2023/12/10 03:16:49;;;;;;;12.73;3.30;;;13.00;91.70;;;;;;5015078;28;20050;-78
2023/12/10 03:19:15;;;;;;;10.65;3.80;;;13.00;91.80;;;;;;5015060;28;20029;-80
2023/12/10 03:21:41;;;;;;;12.90;3.67;;;13.00;91.80;;;;;;5014675;28;20408;-80
2023/12/10 03:24:07;;;;;;;14.05;3.80;;;13.00;91.90;;;;;;5014893;28;20030;-79
2023/12/10 03:26:32;;;;;;;11.65;3.53;;;13.00;91.90;;;;;;5015184;28;20097;-79
2023/12/10 03:28:58;;;;;;;14.65;3.97;;;13.00;92.00;;;;;;5015762;28;20041;-80
2023/12/10 03:31:24;;;;;;;9.13;3.42;;;13.00;92.10;;;;;;5014889;28;20118;-80
2023/12/10 03:33:50;;;;;;;11.40;3.20;;;13.00;92.10;;;;;;5014828;28;20064;-79
2023/12/10 03:36:17;;;;;;;9.15;3.53;;;13.00;92.20;;;;;;5015065;28;20046;-78
2023/12/10 03:38:43;;;;;;;13.52;3.80;;;13.00;92.30;;;;;;5014784;28;20558;-80
2023/12/10 03:41:09;;;;;;;12.60;3.65;;;13.00;92.40;;;;;;5014891;28;20029;-79
2023/12/10 03:43:34;;;;;;;10.70;3.33;;;13.00;92.50;;;;;;5014690;28;20033;-78
2023/12/10 03:46:00;;;;;;;11.00;3.35;;;13.00;92.60;;;;;;5013740;28;20034;-78
2023/12/10 03:48:26;;;;;;;11.35;3.90;;;12.90;92.70;;;;;;5014694;28;20056;-79
2023/12/10 03:50:51;;;;;;;12.38;4.10;;;12.90;92.80;;;;;;5014244;28;20446;-80
2023/12/10 03:53:17;;;;;;;14.32;3.88;;;13.00;92.80;;;;;;5014363;28;20403;-79
2023/12/10 03:55:43;;;;;;;13.23;3.65;;;13.00;92.90;;;;;;4996505;28;20092;-79
2023/12/10 03:58:09;;;;;;;11.90;3.47;;;13.00;92.80;;;;;;5014319;28;20046;-79
2023/12/10 04:00:34;;;;;;;10.93;3.65;;;13.00;92.90;;;;;;5014498;28;20466;-79
2023/12/10 04:03:00;;;;;;;11.55;3.65;;;13.00;93.00;;;;;;5014510;28;20034;-78
2023/12/10 04:05:26;;;;;;;13.25;3.70;;;13.00;93.10;;;;;;5014469;28;20041;-79
2023/12/10 04:07:52;;;;;;;11.00;3.95;;;13.00;93.50;;;;;;5014432;28;20029;-79
2023/12/10 04:10:18;;;;;;;12.30;3.85;;;13.00;93.20;;;;;;5014306;28;20030;-79
2023/12/10 04:12:44;;;;;;;14.90;3.80;;;13.00;93.20;;;;;;5013932;28;20423;-78
2023/12/10 04:15:10;;;;;;;11.13;3.10;;;13.00;93.30;;;;;;5014353;28;20045;-80
2023/12/10 04:17:36;;;;;;;14.30;3.65;;;13.00;93.40;;;;;;4996161;28;20038;-79
2023/12/10 04:20:03;;;;;;;10.05;3.35;;;13.00;93.50;;;;;;5014226;28;20037;-79
2023/12/10 04:22:28;;;;;;;11.43;3.85;;;13.00;93.60;;;;;;5014340;28;20038;-79
2023/12/10 04:24:54;;;;;;;9.88;3.63;;;13.00;93.60;;;;;;5013911;28;20506;-79
2023/12/10 04:27:23;;;;;;;9.98;3.50;;;13.00;93.80;;;;;;5014018;28;20492;-78
2023/12/10 04:29:49;;;;;;;9.55;3.20;;;13.00;93.80;;;;;;5013736;28;20041;-79
2023/12/10 04:32:15;;;;;;;11.60;3.55;;;13.00;94.00;;;;;;5014144;28;20038;-79
2023/12/10 04:34:41;;;;;;;9.20;3.60;;;13.00;94.00;;;;;;5014027;28;20042;-80
2023/12/10 04:37:06;;;;;;;11.70;3.28;;;13.00;94.00;;;;;;5013935;28;20550;-79
2023/12/10 04:39:32;;;;;;;11.57;3.42;;;13.00;94.00;;;;;;5013537;28;20042;-79
2023/12/10 04:41:58;;;;;;;10.13;3.80;;;13.00;94.10;;;;;;5013671;28;20120;-79
2023/12/10 04:44:24;;;;;;;15.93;4.28;;;13.10;94.30;;;;;;5013729;28;20038;-79
2023/12/10 04:46:49;;;;;;;11.18;3.85;;;13.00;94.40;;;;;;5013869;28;20041;-79
2023/12/10 04:49:15;;;;;;;11.40;4.47;;;13.00;94.40;;;;;;5013825;28;20033;-79
2023/12/10 04:51:41;;;;;;;10.23;3.70;;;13.00;94.60;;;;;;5013350;28;20038;-78
2023/12/10 04:54:06;;;;;;;9.30;3.13;;;13.00;94.70;;;;;;5013514;28;20385;-80
2023/12/10 04:56:32;;;;;;;12.93;3.72;;;13.00;94.60;;;;;;5013459;28;20044;-80
2023/12/10 04:58:58;;;;;;;13.15;3.88;;;13.10;94.70;;;;;;5013171;28;20038;-78
2023/12/10 05:01:24;;;;;;;11.18;3.67;;;13.10;94.70;;;;;;5013417;28;20491;-79
2023/12/10 05:03:50;;;;;;;13.35;3.60;;;13.10;94.80;;;;;;5013387;28;20076;-79
2023/12/10 05:06:16;;;;;;;13.70;3.80;;;13.10;94.80;;;;;;5013628;28;20042;-79
2023/12/10 05:08:42;;;;;;;10.85;3.03;;;13.10;94.90;;;;;;5013557;28;20032;-80
2023/12/10 05:11:08;;;;;;;13.30;3.47;;;13.10;94.90;;;;;;5013357;28;20050;-79
2023/12/10 05:13:35;;;;;;;11.90;3.63;;;13.10;95.00;;;;;;5013464;28;20042;-80
2023/12/10 05:16:01;;;;;;;13.80;3.55;;;13.10;95.00;;;;;;5013278;28;20224;-78
2023/12/10 05:18:27;;;;;;;13.98;3.97;;;13.20;95.30;;;;;;5023614;28;20121;-78
2023/12/10 05:20:53;;;;;;;13.10;4.50;;;13.10;95.10;;;;;;5034459;28;20042;-79
2023/12/10 05:23:19;;;;;;;15.35;3.85;;;13.20;95.30;;;;;;5014647;28;20106;-79
2023/12/10 05:25:44;;;;;;;10.82;3.50;;;13.20;95.20;;;;;;5013529;28;20506;-79
2023/12/10 05:28:10;;;;;;;11.40;4.05;;;13.20;95.30;;;;;;5013278;28;20045;-79
2023/12/10 05:30:36;;;;;;;14.70;3.80;;;13.20;95.40;;;;;;5013517;28;20081;-78
2023/12/10 05:33:02;;;;;;;15.52;4.65;;;13.20;95.30;;;;;;4995354;28;20073;-79
2023/12/10 05:35:29;;;;;;;14.07;4.28;;;13.10;95.30;;;;;;5012914;28;20041;-78
2023/12/10 05:37:54;;;;;;;14.23;3.97;;;13.10;95.50;;;;;;5012934;28;20061;-80
2023/12/10 05:40:20;;;;;;;13.88;4.28;;;13.10;95.50;;;;;;5012814;28;20034;-81
2023/12/10 05:42:46;;;;;;;13.65;4.30;;;13.10;95.50;;;;;;5012488;28;20088;-79
2023/12/10 05:45:12;;;;;;;14.50;4.15;;;13.10;95.60;;;;;;5013088;28;20057;-80
2023/12/10 05:47:38;;;;;;;15.50;4.38;;;13.10;95.50;;;;;;5012662;28;20038;-79
2023/12/10 05:50:04;;;;;;;13.10;4.38;;;13.10;95.60;;;;;;5012857;28;20180;-80
2023/12/10 05:52:30;;;;;;;13.20;5.47;;;13.20;95.80;;;;;;5012806;28;20027;-80
2023/12/10 05:54:56;;;;;;;15.90;5.75;;;13.10;95.60;;;;;;5012763;28;20064;-78
2023/12/10 05:57:21;;;;;;;16.17;5.65;;;13.10;95.70;;;;;;5012972;28;20265;-80
2023/12/10 05:59:47;;;;;;;12.70;4.78;;;13.10;95.70;;;;;;5012651;28;20081;-80
2023/12/10 06:02:13;;;;;;;13.27;4.60;;;13.10;95.80;;;;;;5012721;28;20030;-80
2023/12/10 06:04:38;;;;;;;15.32;4.82;;;13.10;95.80;;;;;;5012773;28;20038;-80
2023/12/10 06:07:04;;;;;;;19.05;5.72;;;13.10;95.90;;;;;;5012586;28;20033;-79
2023/12/10 06:09:30;;;;;;;13.00;4.88;;;13.10;95.80;;;;;;4996479;28;20038;-78
2023/12/10 06:11:55;;;;;;;16.80;5.25;;;13.10;95.90;;;;;;5016396;28;20093;-80
2023/12/10 06:14:21;;;;;;;16.45;5.15;;;13.10;95.90;;;;;;5016622;28;20030;-80
2023/12/10 06:16:47;;;;;;;15.90;5.20;;;13.10;96.00;;;;;;5016473;28;20045;-80
2023/12/10 06:19:13;;;;;;;17.52;5.53;;;13.10;95.90;;;;;;4998885;28;20483;-81
2023/12/10 06:21:38;;;;;;;14.75;5.45;;;13.10;95.90;;;;;;5016287;28;20045;-78
2023/12/10 06:24:04;;;;;;;20.80;5.80;;;13.10;95.90;;;;;;4998656;28;20175;-76
2023/12/10 06:26:30;;;;;;;16.77;7.45;;;13.10;95.90;;;;;;5016240;28;20053;-79
2023/12/10 06:28:56;;;;;;;15.57;7.43;;;13.10;96.00;;;;;;5016254;28;20507;-81
2023/12/10 06:31:22;;;;;;;19.50;7.43;;;13.00;96.00;;;;;;5015998;28;20050;-81
2023/12/10 06:33:48;;;;;;;16.02;8.68;;;13.00;96.10;;;;;;5016153;28;20081;-81
2023/12/10 06:36:14;;;;;;;16.63;9.98;;;12.90;96.00;;;;;;5016345;28;20137;-79
2023/12/10 06:38:40;;;;;;;17.98;11.40;;;12.80;96.00;;;;;;5015970;28;20511;-78
2023/12/10 06:41:06;;;;;;;17.45;10.45;;;12.70;96.10;;;;;;5015847;28;20137;-80
2023/12/10 06:43:32;;;;;;;15.93;11.18;;;12.60;96.00;;;;;;5016011;28;20034;-81
2023/12/10 06:46:00;;;;;;;17.85;11.18;;;12.60;96.00;;;;;;5016089;28;20034;-80
2023/12/10 06:48:26;;;;;;;16.15;10.68;;;12.50;95.50;;;;;;5016146;28;20025;-79
2023/12/10 06:50:52;;;;;;;15.63;11.60;;;12.50;95.80;;;;;;5016431;28;20459;-80
2023/12/10 06:53:18;;;;;;;16.10;11.77;;;12.40;95.90;;;;;;5016180;28;20061;-81
2023/12/10 06:55:45;;;;;;;15.68;10.48;;;12.30;95.70;;;;;;5015886;28;20040;-79
2023/12/10 06:58:11;;;;;;;16.08;10.38;;;12.30;95.70;;;;;;5015891;28;20038;-80
2023/12/10 07:00:36;;;;;;;14.57;10.57;;;12.20;95.60;;;;;;5015998;28;20038;-79
2023/12/10 07:03:02;;;;;;;15.02;11.30;;;12.20;95.50;;;;;;5016274;28;20503;-80
2023/12/10 07:05:28;;;;;;;17.60;11.52;;;12.20;95.40;;;;;;4998393;28;20038;-79
2023/12/10 07:07:54;;;;;;;15.10;10.93;;;12.30;95.60;;;;;;4998123;28;20485;-81
2023/12/10 07:10:19;;;;;;;14.70;10.70;;;12.30;95.40;;;;;;4998600;28;20399;-80
2023/12/10 07:12:46;;;;;;;16.92;11.10;;;12.40;95.30;;;;;;5016610;28;20085;-81
2023/12/10 07:15:12;;;;;;;16.73;11.27;;;12.40;95.30;;;;;;5015990;28;20422;-80
2023/12/10 07:17:38;;;;;;;17.38;11.27;;;12.50;95.10;;;;;;5015742;28;20042;-79
2023/12/10 07:20:04;;;;;;;21.58;11.40;;;12.60;95.00;;;;;;5015559;28;20034;-82
2023/12/10 07:22:30;;;;;;;18.40;11.00;;;12.60;94.60;;;;;;5015320;28;20037;-81
2023/12/10 07:24:55;;;;;;;18.13;11.45;;;12.70;94.70;;;;;;5015377;28;20034;-80
2023/12/10 07:27:21;;;;;;;18.55;10.55;;;12.70;94.50;;;;;;5015532;28;20105;-80
2023/12/10 07:29:48;;;;;;;23.00;12.13;;;12.80;94.60;;;;;;5015545;28;20037;-80
2023/12/10 07:32:13;;;;;;;19.73;12.30;;;12.90;94.60;;;;;;5015566;28;20034;-79
2023/12/10 07:34:39;;;;;;;25.73;12.45;;;12.90;94.50;;;;;;5015243;28;20396;-81
2023/12/10 07:37:05;;;;;;;47.67;14.02;;;12.90;94.50;;;;;;4997341;28;20041;-80
2023/12/10 07:39:30;;;;;;;28.23;12.60;;;12.90;94.70;;;;;;5015562;28;20030;-80
2023/12/10 07:41:56;;;;;;;23.15;12.68;;;12.90;94.70;;;;;;5020264;28;20085;-80
2023/12/10 07:44:23;;;;;;;26.35;13.38;;;12.90;94.60;;;;;;5027820;28;20564;-82
2023/12/10 07:46:49;;;;;;;26.23;13.23;;;13.00;94.60;;;;;;5033861;28;20048;-80
2023/12/10 07:49:14;;;;;;;24.98;12.88;;;13.10;94.60;;;;;;5039103;28;20022;-80
2023/12/10 07:51:40;;;;;;;31.48;14.63;;;13.30;94.40;;;;;;5026537;28;20061;-81
2023/12/10 07:54:06;;;;;;;32.15;13.27;;;13.40;94.30;;;;;;5015615;28;20022;-83
2023/12/10 07:56:31;;;;;;;47.78;14.15;;;13.40;94.50;;;;;;5015131;28;20562;-82
2023/12/10 07:58:57;;;;;;;33.00;14.68;;;13.40;94.10;;;;;;5015390;28;20030;-81
2023/12/10 08:01:23;;;;;;;28.65;14.73;;;13.40;94.20;;;;;;5015549;28;20056;-80
2023/12/10 08:03:48;;;;;;;29.10;13.77;;;13.50;94.10;;;;;;5014790;28;20042;-81
2023/12/10 08:06:14;;;;;;;23.90;13.38;;;13.50;94.00;;;;;;5014373;28;20399;-80
2023/12/10 08:08:40;;;;;;;27.58;14.25;;;13.50;94.10;;;;;;5014452;28;20117;-80
2023/12/10 08:11:06;;;;;;;27.02;12.93;;;13.40;94.20;;;;;;5014907;28;20372;-80
2023/12/10 08:13:32;;;;;;;27.67;13.25;;;13.30;94.10;;;;;;5014591;28;20042;-81
2023/12/10 08:15:57;;;;;;;33.53;13.43;;;13.30;94.30;;;;;;5014201;28;20122;-81
2023/12/10 08:18:24;;;;;;;29.25;13.32;;;13.20;94.40;;;;;;5014522;28;20041;-81
2023/12/10 08:20:50;;;;;;;21.88;13.45;;;13.20;94.40;;;;;;5015195;28;20030;-82
2023/12/10 08:23:15;;;;;;;22.52;12.48;;;13.30;94.50;;;;;;5015528;28;20049;-82
2023/12/10 08:25:41;;;;;;;26.58;13.38;;;13.40;94.40;;;;;;5014258;28;20391;-81
2023/12/10 08:28:07;;;;;;;23.17;13.68;;;13.50;94.20;;;;;;5013952;28;20396;-83
2023/12/10 08:30:33;;;;;;;30.33;12.88;;;13.60;94.30;;;;;;5014106;28;20038;-82
2023/12/10 08:32:59;;;;;;;26.63;12.35;;;13.60;94.00;;;;;;5013990;28;20038;-81
2023/12/10 08:35:25;;;;;;;24.75;12.30;;;13.70;94.10;;;;;;5014032;28;20060;-84
2023/12/10 08:37:51;;;;;;;21.70;11.70;;;13.70;93.90;;;;;;5015082;28;20041;-81
2023/12/10 08:40:16;;;;;;;22.00;11.63;;;13.70;93.90;;;;;;5014226;28;20022;-82
2023/12/10 08:42:42;;;;;;;18.63;12.10;;;13.70;94.00;;;;;;5014341;28;20034;-81
2023/12/10 08:45:08;;;;;;;25.17;13.43;;;13.80;94.10;;;;;;5013848;28;20045;-82
2023/12/10 08:47:35;;;;;;;27.95;13.60;;;13.80;94.00;;;;;;5014034;28;20061;-81
2023/12/10 08:50:02;;;;;;;20.65;11.90;;;13.80;94.10;;;;;;5013399;28;20041;-82
2023/12/10 08:52:28;;;;;;;19.17;11.45;;;13.70;94.30;;;;;;4995608;28;20097;-81
2023/12/10 08:54:54;;;;;;;24.00;12.85;;;13.80;94.20;;;;;;5013521;28;20117;-82
2023/12/10 08:57:24;;;;;;;19.55;12.77;;;13.80;94.20;;;;;;5013526;28;20042;-80
2023/12/10 08:59:50;;;;;;;20.92;11.95;;;13.80;94.20;;;;;;5013621;28;20041;-81
2023/12/10 09:02:16;;;;;;;27.55;13.23;;;13.80;94.20;;;;;;5013728;28;20034;-83
2023/12/10 09:04:41;;;;;;;29.17;12.95;;;13.90;94.30;;;;;;5013368;28;20532;-83
2023/12/10 09:07:07;;;;;;;27.67;13.18;;;13.90;94.30;;;;;;5013465;28;20110;-81
2023/12/10 09:09:33;;;;;;;20.88;11.80;;;13.90;94.30;;;;;;5013597;28;20398;-83
2023/12/10 09:11:59;;;;;;;27.00;11.65;;;14.00;94.20;;;;;;5013337;28;20546;-81
2023/12/10 09:14:25;;;;;;;20.38;12.55;;;14.00;94.30;;;;;;5013956;28;20037;-82
2023/12/10 09:16:51;;;;;;;19.40;10.45;;;14.10;94.30;;;;;;5013159;28;20042;-82
2023/12/10 09:19:17;;;;;;;19.27;10.35;;;14.20;94.30;;;;;;5013356;28;20092;-80
2023/12/10 09:21:45;;;;;;;16.65;11.13;;;14.30;94.30;;;;;;4995226;28;20033;-82
2023/12/10 09:24:10;;;;;;;25.85;11.48;;;14.30;94.30;;;;;;5013547;28;20092;-79
2023/12/10 09:26:36;;;;;;;24.17;11.25;;;14.40;94.20;;;;;;5014014;28;20029;-82
2023/12/10 09:29:03;;;;;;;19.55;10.93;;;14.50;94.30;;;;;;5013754;28;20061;-83
2023/12/10 09:31:28;;;;;;;19.63;11.50;;;14.50;94.10;;;;;;5013742;28;20113;-82
2023/12/10 09:33:54;;;;;;;21.23;10.32;;;14.60;94.00;;;;;;5013426;28;20085;-82
2023/12/10 09:36:20;;;;;;;25.50;11.45;;;14.70;94.00;;;;;;5013254;28;20045;-81
2023/12/10 09:38:45;;;;;;;18.55;9.30;;;14.70;93.90;;;;;;5013201;28;20038;-82
2023/12/10 09:41:11;;;;;;;22.58;9.75;;;14.80;93.80;;;;;;5013648;28;20033;-82
2023/12/10 09:43:37;;;;;;;21.23;9.80;;;14.80;93.70;;;;;;5013609;28;20065;-83
2023/12/10 09:46:03;;;;;;;19.75;9.38;;;14.90;93.60;;;;;;5016896;28;20026;-82
2023/12/10 09:48:31;;;;;;;19.20;8.80;;;15.00;93.50;;;;;;5017337;28;20574;-82
2023/12/10 09:50:57;;;;;;;21.80;9.65;;;15.10;93.30;;;;;;5017608;28;20026;-82
2023/12/10 09:53:23;;;;;;;18.27;8.75;;;15.20;93.20;;;;;;5019766;28;20057;-83
2023/12/10 09:55:49;;;;;;;16.77;7.88;;;15.20;93.10;;;;;;5017870;28;20070;-81
2023/12/10 09:58:14;;;;;;;17.92;7.68;;;15.30;93.00;;;;;;5016939;28;20120;-82
2023/12/10 10:00:40;;;;;;;19.65;8.18;;;15.40;92.80;;;;;;5017161;28;20132;-82
2023/12/10 10:03:06;;;;;;;18.52;8.07;;;15.50;92.60;;;;;;5016723;28;20038;-83
2023/12/10 10:05:36;;;;;;;16.05;6.03;;;15.60;92.60;;;;;;5017042;28;20499;-80
2023/12/10 10:08:01;;;;;;;19.65;5.53;;;15.60;92.40;;;;;;5017036;28;20060;-81
2023/12/10 10:10:27;;;;;;;17.92;5.10;;;15.70;92.30;;;;;;5017111;28;20487;-83
2023/12/10 10:12:56;;;;;;;17.10;5.18;;;15.70;92.00;;;;;;5021504;28;20054;-82
2023/12/10 10:15:30;;;;;;;18.77;5.25;;;15.70;91.90;;;;;;5027027;28;20030;-81
2023/12/10 10:17:56;;;;;;;16.63;4.80;;;15.80;91.50;;;;;;5028118;28;20048;-80
2023/12/10 10:20:24;;;;;;;14.82;4.72;;;15.80;91.50;;;;;;5036427;28;20169;-83
2023/12/10 10:22:51;;;;;;;12.35;4.38;;;15.90;91.60;;;;;;5040612;28;20026;-81
2023/12/10 10:25:21;;;;;;;16.08;4.35;;;15.90;91.50;;;;;;5023313;28;20034;-82
2023/12/10 10:27:50;;;;;;;14.13;4.40;;;16.00;91.20;;;;;;5017047;28;20036;-82
2023/12/10 10:30:15;;;;;;;13.93;5.03;;;16.10;91.20;;;;;;4999141;28;20101;-82
2023/12/10 10:32:43;;;;;;;16.35;5.03;;;16.10;91.20;;;;;;5017098;28;20061;-82
2023/12/10 10:35:11;;;;;;;12.60;4.75;;;16.10;91.10;;;;;;5017510;28;20034;-84
2023/12/10 10:37:37;;;;;;;16.88;5.13;;;16.20;91.00;;;;;;5016660;28;20042;-83
2023/12/10 10:40:03;;;;;;;14.95;4.40;;;16.20;91.00;;;;;;5016100;28;20369;-80
2023/12/10 10:42:29;;;;;;;14.85;4.47;;;16.20;90.70;;;;;;5014989;28;20113;-81
2023/12/10 10:44:55;;;;;;;16.05;4.65;;;16.30;90.80;;;;;;5016692;28;20453;-82
2023/12/10 10:47:22;;;;;;;13.02;4.00;;;16.30;90.70;;;;;;5016615;28;20034;-83
2023/12/10 10:49:57;;;;;;;12.70;4.32;;;16.30;90.70;;;;;;5016574;28;20169;-82
2023/12/10 10:52:27;;;;;;;16.05;4.47;;;16.40;90.70;;;;;;5015966;28;20070;-83
2023/12/10 10:54:56;;;;;;;14.02;3.95;;;16.50;90.60;;;;;;5015806;28;20392;-82
2023/12/10 10:57:29;;;;;;;14.27;3.72;;;16.60;90.40;;;;;;5016504;28;20504;-82
2023/12/10 10:59:55;;;;;;;11.43;4.53;;;16.60;90.40;;;;;;5017493;28;20030;-81
2023/12/10 11:02:21;;;;;;;10.77;3.30;;;16.70;90.20;;;;;;5017109;28;20300;-81
2023/12/10 11:04:48;;;;;;;14.88;4.07;;;16.70;90.00;;;;;;5016009;28;20112;-81
2023/12/10 11:07:15;;;;;;;10.13;4.15;;;16.70;90.00;;;;;;5016225;28;20120;-83
2023/12/10 11:09:53;;;;;;;13.20;3.38;;;16.80;89.80;;;;;;5016098;28;20033;-81
2023/12/10 11:12:54;;;;;;;13.40;3.28;;;16.80;89.40;;;;;;5015849;28;20049;-82
2023/12/10 11:15:23;;;;;;;14.75;4.18;;;16.80;88.60;;;;;;4973920;28;20115;-83
2023/12/10 11:17:57;;;;;;;10.02;2.75;;;16.80;88.50;;;;;;5015640;28;20046;-78
2023/12/10 11:20:42;;;;;;;9.20;2.92;;;16.90;88.30;;;;;;4999037;28;20450;-81
2023/12/10 11:23:09;;;;;;;15.55;3.53;;;16.90;88.10;;;;;;5018304;28;20044;-81
2023/12/10 11:25:36;;;;;;;9.95;2.92;;;17.00;88.00;;;;;;5016050;28;20088;-82
2023/12/10 11:28:08;;;;;;;12.60;3.22;;;17.10;87.60;;;;;;5015640;28;20034;-81
2023/12/10 11:30:34;;;;;;;10.05;3.08;;;17.10;87.30;;;;;;5015730;28;20037;-82
2023/12/10 11:33:00;;;;;;;11.35;3.75;;;17.10;86.90;;;;;;5016540;28;20045;-81
2023/12/10 11:35:25;;;;;;;10.10;3.20;;;17.20;86.50;;;;;;5016462;28;20085;-82
2023/12/10 11:37:51;;;;;;;9.55;3.17;;;17.20;86.10;;;;;;5014879;28;20049;-81
2023/12/10 11:40:17;;;;;;;9.65;3.13;;;17.20;85.80;;;;;;5016499;28;20037;-83
2023/12/10 11:42:42;;;;;;;7.25;3.22;;;17.30;85.70;;;;;;5015382;28;20121;-82
2023/12/10 11:45:09;;;;;;;9.40;3.15;;;17.30;85.20;;;;;;5015142;28;20034;-82
2023/12/10 11:47:34;;;;;;;10.13;3.40;;;17.30;85.20;;;;;;5014746;28;20041;-81
2023/12/10 11:50:03;;;;;;;11.30;3.75;;;17.40;85.00;;;;;;5014726;28;20030;-82
2023/12/10 11:52:31;;;;;;;13.32;3.17;;;17.40;84.80;;;;;;5015203;28;20037;-82
2023/12/10 11:54:58;;;;;;;10.48;3.65;;;17.40;84.80;;;;;;4997327;28;20115;-81
2023/12/10 11:57:23;;;;;;;8.55;3.00;;;17.50;84.50;;;;;;5014514;28;20044;-82
2023/12/10 11:59:50;;;;;;;9.10;2.72;;;17.50;84.20;;;;;;5014656;28;20030;-81
2023/12/10 12:02:16;;;;;;;7.00;2.80;;;17.50;83.60;;;;;;5015206;28;20088;-83
2023/12/10 12:04:42;;;;;;;7.18;2.85;;;17.50;82.30;;;;;;5014410;28;20033;-83
2023/12/10 12:07:28;;;;;;;8.45;2.47;;;17.50;81.50;;;;;;5013406;28;20396;-82
2023/12/10 12:09:55;;;;;;;7.95;2.45;;;17.60;81.40;;;;;;5014224;28;20484;-78
2023/12/10 12:12:24;;;;;;;9.30;2.63;;;17.60;79.40;;;;;;5014318;28;20074;-81
2023/12/10 12:14:53;;;;;;;6.68;2.60;;;17.70;79.00;;;;;;5014312;28;20034;-82
2023/12/10 12:17:20;;;;;;;8.40;2.40;;;17.70;78.40;;;;;;5014576;28;20050;-83
2023/12/10 12:19:46;;;;;;;3.95;2.03;;;17.80;77.60;;;;;;5014570;28;20030;-81
2023/12/10 12:22:12;;;;;;;7.07;2.33;;;17.80;77.20;;;;;;4996423;28;20384;-82
2023/12/10 12:24:43;;;;;;;6.90;2.67;;;17.90;76.70;;;;;;5014451;28;20034;-84
2023/12/10 12:27:10;;;;;;;6.10;2.10;;;17.90;75.60;;;;;;5014284;28;20509;-82
2023/12/10 12:29:36;;;;;;;7.35;2.63;;;17.90;74.50;;;;;;5014222;28;20045;-83
2023/12/10 12:32:03;;;;;;;8.20;2.70;;;17.90;73.90;;;;;;5014012;28;20034;-82